sensor_id;sensor_type;location;lat;lon;timestamp;temperature;humidity
20487;DHT22;10402;49.012;8.370;2023-05-20T00:00:07;15.90;62.20
20487;DHT22;10402;49.012;8.370;2023-05-20T00:02:33;15.90;62.20
20487;DHT22;10402;49.012;8.370;2023-05-20T00:04:58;15.90;62.20
20487;DHT22;10402;49.012;8.370;2023-05-20T00:07:24;15.90;62.20
20487;DHT22;10402;49.012;8.370;2023-05-20T00:09:50;15.90;62.20
20487;DHT22;10402;49.012;8.370;2023-05-20T00:12:16;15.80;62.10
20487;DHT22;10402;49.012;8.370;2023-05-20T00:14:41;15.80;62.10
20487;DHT22;10402;49.012;8.370;2023-05-20T00:17:07;15.80;62.10
20487;DHT22;10402;49.012;8.370;2023-05-20T00:19:32;15.80;62.10
20487;DHT22;10402;49.012;8.370;2023-05-20T00:21:58;15.80;62.10
20487;DHT22;10402;49.012;8.370;2023-05-20T00:24:24;15.70;62.20
20487;DHT22;10402;49.012;8.370;2023-05-20T00:26:49;15.70;62.40
20487;DHT22;10402;49.012;8.370;2023-05-20T00:29:15;15.70;62.40
20487;DHT22;10402;49.012;8.370;2023-05-20T00:31:41;15.60;62.40
20487;DHT22;10402;49.012;8.370;2023-05-20T00:34:07;15.70;62.40
20487;DHT22;10402;49.012;8.370;2023-05-20T00:36:33;15.70;62.50
20487;DHT22;10402;49.012;8.370;2023-05-20T00:38:59;15.60;62.20
20487;DHT22;10402;49.012;8.370;2023-05-20T00:41:25;15.60;62.30
20487;DHT22;10402;49.012;8.370;2023-05-20T00:43:54;15.60;62.40
20487;DHT22;10402;49.012;8.370;2023-05-20T00:46:20;15.60;62.30
20487;DHT22;10402;49.012;8.370;2023-05-20T00:48:46;15.60;62.30
20487;DHT22;10402;49.012;8.370;2023-05-20T00:51:12;15.50;62.20
20487;DHT22;10402;49.012;8.370;2023-05-20T00:53:38;15.60;62.40
20487;DHT22;10402;49.012;8.370;2023-05-20T00:56:05;15.60;62.60
20487;DHT22;10402;49.012;8.370;2023-05-20T00:58:31;15.60;62.50
20487;DHT22;10402;49.012;8.370;2023-05-20T01:00:57;15.60;62.60
20487;DHT22;10402;49.012;8.370;2023-05-20T01:03:22;15.50;62.50
20487;DHT22;10402;49.012;8.370;2023-05-20T01:05:48;15.60;62.60
20487;DHT22;10402;49.012;8.370;2023-05-20T01:08:13;15.60;62.60
20487;DHT22;10402;49.012;8.370;2023-05-20T01:10:44;15.60;62.70
20487;DHT22;10402;49.012;8.370;2023-05-20T01:13:16;15.50;62.60
20487;DHT22;10402;49.012;8.370;2023-05-20T01:15:45;15.50;62.80
20487;DHT22;10402;49.012;8.370;2023-05-20T01:18:13;15.50;63.00
20487;DHT22;10402;49.012;8.370;2023-05-20T01:20:45;15.50;63.10
20487;DHT22;10402;49.012;8.370;2023-05-20T01:23:13;15.50;63.20
20487;DHT22;10402;49.012;8.370;2023-05-20T01:25:39;15.50;63.30
20487;DHT22;10402;49.012;8.370;2023-05-20T01:28:06;15.50;63.30
20487;DHT22;10402;49.012;8.370;2023-05-20T01:30:36;15.50;63.40
20487;DHT22;10402;49.012;8.370;2023-05-20T01:33:06;15.50;63.50
20487;DHT22;10402;49.012;8.370;2023-05-20T01:35:33;15.50;63.50
20487;DHT22;10402;49.012;8.370;2023-05-20T01:38:00;15.50;63.50
20487;DHT22;10402;49.012;8.370;2023-05-20T01:40:27;15.50;63.60
20487;DHT22;10402;49.012;8.370;2023-05-20T01:42:54;15.40;63.70
20487;DHT22;10402;49.012;8.370;2023-05-20T01:45:20;15.40;63.80
20487;DHT22;10402;49.012;8.370;2023-05-20T01:47:47;15.40;63.90
20487;DHT22;10402;49.012;8.370;2023-05-20T01:50:14;15.40;64.00
20487;DHT22;10402;49.012;8.370;2023-05-20T01:52:39;15.40;64.00
20487;DHT22;10402;49.012;8.370;2023-05-20T01:55:05;15.40;64.00
20487;DHT22;10402;49.012;8.370;2023-05-20T01:57:31;15.40;64.10
20487;DHT22;10402;49.012;8.370;2023-05-20T01:59:56;15.30;64.20
20487;DHT22;10402;49.012;8.370;2023-05-20T02:02:22;15.30;64.30
20487;DHT22;10402;49.012;8.370;2023-05-20T02:04:49;15.30;64.40
20487;DHT22;10402;49.012;8.370;2023-05-20T02:07:15;15.30;64.50
20487;DHT22;10402;49.012;8.370;2023-05-20T02:09:41;15.30;64.60
20487;DHT22;10402;49.012;8.370;2023-05-20T02:12:07;15.30;64.60
20487;DHT22;10402;49.012;8.370;2023-05-20T02:14:33;15.30;64.60
20487;DHT22;10402;49.012;8.370;2023-05-20T02:16:59;15.30;64.60
20487;DHT22;10402;49.012;8.370;2023-05-20T02:19:24;15.30;64.60
20487;DHT22;10402;49.012;8.370;2023-05-20T02:21:50;15.30;64.60
20487;DHT22;10402;49.012;8.370;2023-05-20T02:24:16;15.30;64.60
20487;DHT22;10402;49.012;8.370;2023-05-20T02:26:41;15.30;64.60
20487;DHT22;10402;49.012;8.370;2023-05-20T02:29:08;15.30;64.70
20487;DHT22;10402;49.012;8.370;2023-05-20T02:31:34;15.20;64.70
20487;DHT22;10402;49.012;8.370;2023-05-20T02:34:00;15.20;64.90
20487;DHT22;10402;49.012;8.370;2023-05-20T02:36:25;15.20;65.00
20487;DHT22;10402;49.012;8.370;2023-05-20T02:38:52;15.20;65.00
20487;DHT22;10402;49.012;8.370;2023-05-20T02:41:21;15.20;65.00
20487;DHT22;10402;49.012;8.370;2023-05-20T02:43:46;15.20;65.10
20487;DHT22;10402;49.012;8.370;2023-05-20T02:46:12;15.10;65.10
20487;DHT22;10402;49.012;8.370;2023-05-20T02:48:38;15.10;65.20
20487;DHT22;10402;49.012;8.370;2023-05-20T02:51:04;15.10;65.20
20487;DHT22;10402;49.012;8.370;2023-05-20T02:53:30;15.10;65.30
20487;DHT22;10402;49.012;8.370;2023-05-20T02:55:56;15.00;65.30
20487;DHT22;10402;49.012;8.370;2023-05-20T02:58:22;15.00;65.50
20487;DHT22;10402;49.012;8.370;2023-05-20T03:00:52;15.00;65.70
20487;DHT22;10402;49.012;8.370;2023-05-20T03:03:17;15.00;65.70
20487;DHT22;10402;49.012;8.370;2023-05-20T03:05:43;15.00;65.70
20487;DHT22;10402;49.012;8.370;2023-05-20T03:08:11;15.00;65.70
20487;DHT22;10402;49.012;8.370;2023-05-20T03:10:37;14.90;65.70
20487;DHT22;10402;49.012;8.370;2023-05-20T03:13:07;14.90;65.90
20487;DHT22;10402;49.012;8.370;2023-05-20T03:15:39;14.80;65.80
20487;DHT22;10402;49.012;8.370;2023-05-20T03:18:05;14.80;65.80
20487;DHT22;10402;49.012;8.370;2023-05-20T03:20:30;14.80;65.80
20487;DHT22;10402;49.012;8.370;2023-05-20T03:23:01;14.70;65.70
20487;DHT22;10402;49.012;8.370;2023-05-20T03:25:27;14.70;65.80
20487;DHT22;10402;49.012;8.370;2023-05-20T03:27:52;14.60;65.90
20487;DHT22;10402;49.012;8.370;2023-05-20T03:30:18;14.60;66.00
20487;DHT22;10402;49.012;8.370;2023-05-20T03:32:44;14.60;66.00
20487;DHT22;10402;49.012;8.370;2023-05-20T03:35:10;14.60;65.90
20487;DHT22;10402;49.012;8.370;2023-05-20T03:37:35;14.60;65.80
20487;DHT22;10402;49.012;8.370;2023-05-20T03:40:02;14.60;65.90
20487;DHT22;10402;49.012;8.370;2023-05-20T03:42:30;14.60;65.90
20487;DHT22;10402;49.012;8.370;2023-05-20T03:44:56;14.50;65.80
20487;DHT22;10402;49.012;8.370;2023-05-20T03:47:22;14.50;65.90
20487;DHT22;10402;49.012;8.370;2023-05-20T03:49:47;14.40;66.00
20487;DHT22;10402;49.012;8.370;2023-05-20T03:52:13;14.40;66.10
20487;DHT22;10402;49.012;8.370;2023-05-20T03:54:38;14.40;66.20
20487;DHT22;10402;49.012;8.370;2023-05-20T03:57:04;14.40;66.20
20487;DHT22;10402;49.012;8.370;2023-05-20T03:59:30;14.40;66.10
20487;DHT22;10402;49.012;8.370;2023-05-20T04:01:55;14.30;66.90
20487;DHT22;10402;49.012;8.370;2023-05-20T04:04:21;14.20;66.30
20487;DHT22;10402;49.012;8.370;2023-05-20T04:06:47;14.20;66.40
20487;DHT22;10402;49.012;8.370;2023-05-20T04:09:12;14.20;66.40
20487;DHT22;10402;49.012;8.370;2023-05-20T04:11:38;14.10;66.30
20487;DHT22;10402;49.012;8.370;2023-05-20T04:14:03;14.10;66.30
20487;DHT22;10402;49.012;8.370;2023-05-20T04:16:29;14.10;66.40
20487;DHT22;10402;49.012;8.370;2023-05-20T04:18:55;14.10;66.30
20487;DHT22;10402;49.012;8.370;2023-05-20T04:21:23;14.10;66.30
20487;DHT22;10402;49.012;8.370;2023-05-20T04:23:50;14.10;66.30
20487;DHT22;10402;49.012;8.370;2023-05-20T04:26:15;14.20;66.40
20487;DHT22;10402;49.012;8.370;2023-05-20T04:28:41;14.20;66.40
20487;DHT22;10402;49.012;8.370;2023-05-20T04:31:06;14.20;66.50
20487;DHT22;10402;49.012;8.370;2023-05-20T04:33:32;14.20;66.60
20487;DHT22;10402;49.012;8.370;2023-05-20T04:36:02;14.20;66.60
20487;DHT22;10402;49.012;8.370;2023-05-20T04:38:29;14.20;66.60
20487;DHT22;10402;49.012;8.370;2023-05-20T04:40:59;14.20;66.80
20487;DHT22;10402;49.012;8.370;2023-05-20T04:43:26;14.20;66.80
20487;DHT22;10402;49.012;8.370;2023-05-20T04:45:57;14.10;66.70
20487;DHT22;10402;49.012;8.370;2023-05-20T04:48:24;14.10;66.90
20487;DHT22;10402;49.012;8.370;2023-05-20T04:50:50;14.00;67.10
20487;DHT22;10402;49.012;8.370;2023-05-20T04:53:19;14.00;67.20
20487;DHT22;10402;49.012;8.370;2023-05-20T04:55:46;13.90;67.40
20487;DHT22;10402;49.012;8.370;2023-05-20T04:58:11;13.90;67.70
20487;DHT22;10402;49.012;8.370;2023-05-20T05:00:43;13.90;67.80
20487;DHT22;10402;49.012;8.370;2023-05-20T05:03:09;13.90;68.00
20487;DHT22;10402;49.012;8.370;2023-05-20T05:05:37;13.90;68.10
20487;DHT22;10402;49.012;8.370;2023-05-20T05:08:04;13.90;68.10
20487;DHT22;10402;49.012;8.370;2023-05-20T05:10:30;13.90;68.00
20487;DHT22;10402;49.012;8.370;2023-05-20T05:12:56;13.90;68.00
20487;DHT22;10402;49.012;8.370;2023-05-20T05:15:22;14.00;68.20
20487;DHT22;10402;49.012;8.370;2023-05-20T05:17:47;14.00;68.20
20487;DHT22;10402;49.012;8.370;2023-05-20T05:20:13;14.00;68.30
20487;DHT22;10402;49.012;8.370;2023-05-20T05:22:38;14.00;68.30
20487;DHT22;10402;49.012;8.370;2023-05-20T05:25:06;14.10;68.30
20487;DHT22;10402;49.012;8.370;2023-05-20T05:27:32;14.10;68.30
20487;DHT22;10402;49.012;8.370;2023-05-20T05:29:59;14.10;68.40
20487;DHT22;10402;49.012;8.370;2023-05-20T05:32:25;14.10;68.70
20487;DHT22;10402;49.012;8.370;2023-05-20T05:34:50;14.10;68.70
20487;DHT22;10402;49.012;8.370;2023-05-20T05:37:16;14.10;68.60
20487;DHT22;10402;49.012;8.370;2023-05-20T05:39:41;14.10;68.50
20487;DHT22;10402;49.012;8.370;2023-05-20T05:42:07;14.20;68.70
20487;DHT22;10402;49.012;8.370;2023-05-20T05:44:32;14.20;68.70
20487;DHT22;10402;49.012;8.370;2023-05-20T05:46:58;14.30;68.70
20487;DHT22;10402;49.012;8.370;2023-05-20T05:49:23;14.30;68.70
20487;DHT22;10402;49.012;8.370;2023-05-20T05:51:50;14.30;68.60
20487;DHT22;10402;49.012;8.370;2023-05-20T05:54:15;14.40;68.70
20487;DHT22;10402;49.012;8.370;2023-05-20T05:56:41;14.40;68.60
20487;DHT22;10402;49.012;8.370;2023-05-20T05:59:06;14.40;68.60
20487;DHT22;10402;49.012;8.370;2023-05-20T06:01:32;14.40;68.50
20487;DHT22;10402;49.012;8.370;2023-05-20T06:03:57;14.40;68.50
20487;DHT22;10402;49.012;8.370;2023-05-20T06:06:23;14.50;68.80
20487;DHT22;10402;49.012;8.370;2023-05-20T06:08:48;14.40;68.80
20487;DHT22;10402;49.012;8.370;2023-05-20T06:11:14;14.40;69.00
20487;DHT22;10402;49.012;8.370;2023-05-20T06:13:39;14.40;69.90
20487;DHT22;10402;49.012;8.370;2023-05-20T06:16:05;14.50;69.20
20487;DHT22;10402;49.012;8.370;2023-05-20T06:18:31;14.50;69.00
20487;DHT22;10402;49.012;8.370;2023-05-20T06:20:57;14.50;69.00
20487;DHT22;10402;49.012;8.370;2023-05-20T06:23:23;14.60;69.00
20487;DHT22;10402;49.012;8.370;2023-05-20T06:25:49;14.60;69.00
20487;DHT22;10402;49.012;8.370;2023-05-20T06:28:14;14.70;69.20
20487;DHT22;10402;49.012;8.370;2023-05-20T06:30:40;14.70;69.30
20487;DHT22;10402;49.012;8.370;2023-05-20T06:33:06;14.70;69.30
20487;DHT22;10402;49.012;8.370;2023-05-20T06:35:32;14.70;69.30
20487;DHT22;10402;49.012;8.370;2023-05-20T06:38:00;14.90;70.20
20487;DHT22;10402;49.012;8.370;2023-05-20T06:40:27;14.90;69.30
20487;DHT22;10402;49.012;8.370;2023-05-20T06:42:52;15.00;69.30
20487;DHT22;10402;49.012;8.370;2023-05-20T06:45:18;15.10;69.30
20487;DHT22;10402;49.012;8.370;2023-05-20T06:47:44;15.10;69.20
20487;DHT22;10402;49.012;8.370;2023-05-20T06:50:10;15.20;69.20
20487;DHT22;10402;49.012;8.370;2023-05-20T06:52:36;15.20;69.20
20487;DHT22;10402;49.012;8.370;2023-05-20T06:55:03;15.30;69.20
20487;DHT22;10402;49.012;8.370;2023-05-20T06:57:28;15.40;69.30
20487;DHT22;10402;49.012;8.370;2023-05-20T06:59:54;15.40;69.20
20487;DHT22;10402;49.012;8.370;2023-05-20T07:02:20;15.50;69.30
20487;DHT22;10402;49.012;8.370;2023-05-20T07:04:46;15.50;69.30
20487;DHT22;10402;49.012;8.370;2023-05-20T07:07:12;15.50;69.30
20487;DHT22;10402;49.012;8.370;2023-05-20T07:09:37;15.70;69.40
20487;DHT22;10402;49.012;8.370;2023-05-20T07:12:03;15.80;69.40
20487;DHT22;10402;49.012;8.370;2023-05-20T07:14:28;15.80;69.30
20487;DHT22;10402;49.012;8.370;2023-05-20T07:16:54;15.90;69.40
20487;DHT22;10402;49.012;8.370;2023-05-20T07:19:20;15.90;69.30
20487;DHT22;10402;49.012;8.370;2023-05-20T07:21:45;15.90;69.30
20487;DHT22;10402;49.012;8.370;2023-05-20T07:24:11;15.90;69.50
20487;DHT22;10402;49.012;8.370;2023-05-20T07:26:36;16.00;69.70
20487;DHT22;10402;49.012;8.370;2023-05-20T07:29:03;16.00;69.60
20487;DHT22;10402;49.012;8.370;2023-05-20T07:31:29;16.00;69.60
20487;DHT22;10402;49.012;8.370;2023-05-20T07:33:55;16.10;69.80
20487;DHT22;10402;49.012;8.370;2023-05-20T07:36:21;16.10;69.80
20487;DHT22;10402;49.012;8.370;2023-05-20T07:38:46;16.20;69.80
20487;DHT22;10402;49.012;8.370;2023-05-20T07:41:12;16.30;69.80
20487;DHT22;10402;49.012;8.370;2023-05-20T07:43:37;16.30;69.70
20487;DHT22;10402;49.012;8.370;2023-05-20T07:46:03;16.40;69.80
20487;DHT22;10402;49.012;8.370;2023-05-20T07:48:29;16.40;69.80
20487;DHT22;10402;49.012;8.370;2023-05-20T07:50:54;16.40;69.80
20487;DHT22;10402;49.012;8.370;2023-05-20T07:53:23;16.40;69.80
20487;DHT22;10402;49.012;8.370;2023-05-20T07:55:49;16.50;69.90
20487;DHT22;10402;49.012;8.370;2023-05-20T07:58:15;16.60;70.00
20487;DHT22;10402;49.012;8.370;2023-05-20T08:00:40;16.60;70.00
20487;DHT22;10402;49.012;8.370;2023-05-20T08:03:06;16.70;70.00
20487;DHT22;10402;49.012;8.370;2023-05-20T08:05:32;16.70;70.00
20487;DHT22;10402;49.012;8.370;2023-05-20T08:07:58;16.80;70.00
20487;DHT22;10402;49.012;8.370;2023-05-20T08:10:23;16.90;70.00
20487;DHT22;10402;49.012;8.370;2023-05-20T08:12:49;16.90;69.90
20487;DHT22;10402;49.012;8.370;2023-05-20T08:15:14;16.90;69.80
20487;DHT22;10402;49.012;8.370;2023-05-20T08:17:40;17.00;69.80
20487;DHT22;10402;49.012;8.370;2023-05-20T08:20:06;17.00;70.00
20487;DHT22;10402;49.012;8.370;2023-05-20T08:22:33;17.00;70.00
20487;DHT22;10402;49.012;8.370;2023-05-20T08:24:59;17.10;70.10
20487;DHT22;10402;49.012;8.370;2023-05-20T08:27:24;17.10;70.00
20487;DHT22;10402;49.012;8.370;2023-05-20T08:29:50;17.20;70.00
20487;DHT22;10402;49.012;8.370;2023-05-20T08:32:16;17.30;70.10
20487;DHT22;10402;49.012;8.370;2023-05-20T08:34:41;17.40;69.80
20487;DHT22;10402;49.012;8.370;2023-05-20T08:37:07;17.50;69.90
20487;DHT22;10402;49.012;8.370;2023-05-20T08:39:32;17.70;69.80
20487;DHT22;10402;49.012;8.370;2023-05-20T08:41:58;17.90;69.60
20487;DHT22;10402;49.012;8.370;2023-05-20T08:44:25;18.10;69.30
20487;DHT22;10402;49.012;8.370;2023-05-20T08:46:53;18.30;69.10
20487;DHT22;10402;49.012;8.370;2023-05-20T08:49:20;18.40;68.90
20487;DHT22;10402;49.012;8.370;2023-05-20T08:51:46;18.40;68.60
20487;DHT22;10402;49.012;8.370;2023-05-20T08:54:13;18.40;68.60
20487;DHT22;10402;49.012;8.370;2023-05-20T08:56:39;18.50;68.70
20487;DHT22;10402;49.012;8.370;2023-05-20T08:59:06;18.60;68.50
20487;DHT22;10402;49.012;8.370;2023-05-20T09:01:37;18.70;68.20
20487;DHT22;10402;49.012;8.370;2023-05-20T09:04:04;18.80;68.20
20487;DHT22;10402;49.012;8.370;2023-05-20T09:06:44;18.90;68.00
20487;DHT22;10402;49.012;8.370;2023-05-20T09:09:12;18.80;67.90
20487;DHT22;10402;49.012;8.370;2023-05-20T09:11:39;18.70;67.80
20487;DHT22;10402;49.012;8.370;2023-05-20T09:14:05;18.60;68.10
20487;DHT22;10402;49.012;8.370;2023-05-20T09:16:31;18.50;68.10
20487;DHT22;10402;49.012;8.370;2023-05-20T09:18:57;18.60;68.30
20487;DHT22;10402;49.012;8.370;2023-05-20T09:21:26;18.60;68.30
20487;DHT22;10402;49.012;8.370;2023-05-20T09:23:52;18.60;68.30
20487;DHT22;10402;49.012;8.370;2023-05-20T09:26:18;18.60;68.20
20487;DHT22;10402;49.012;8.370;2023-05-20T09:28:44;18.70;68.20
20487;DHT22;10402;49.012;8.370;2023-05-20T09:31:12;18.90;68.20
20487;DHT22;10402;49.012;8.370;2023-05-20T09:33:39;19.00;67.90
20487;DHT22;10402;49.012;8.370;2023-05-20T09:36:08;19.10;67.60
20487;DHT22;10402;49.012;8.370;2023-05-20T09:38:38;19.20;67.50
20487;DHT22;10402;49.012;8.370;2023-05-20T09:41:12;19.20;67.20
20487;DHT22;10402;49.012;8.370;2023-05-20T09:43:39;19.20;68.00
20487;DHT22;10402;49.012;8.370;2023-05-20T09:46:04;19.30;67.30
20487;DHT22;10402;49.012;8.370;2023-05-20T09:48:30;19.40;67.20
20487;DHT22;10402;49.012;8.370;2023-05-20T09:50:56;19.40;67.10
20487;DHT22;10402;49.012;8.370;2023-05-20T09:53:26;19.40;67.80
20487;DHT22;10402;49.012;8.370;2023-05-20T09:55:53;19.50;67.00
20487;DHT22;10402;49.012;8.370;2023-05-20T09:58:19;19.60;67.00
20487;DHT22;10402;49.012;8.370;2023-05-20T10:00:45;19.70;66.70
20487;DHT22;10402;49.012;8.370;2023-05-20T10:03:11;19.70;66.30
20487;DHT22;10402;49.012;8.370;2023-05-20T10:05:47;19.80;66.40
20487;DHT22;10402;49.012;8.370;2023-05-20T10:17:28;20.00;66.00
20487;DHT22;10402;49.012;8.370;2023-05-20T10:19:59;19.90;66.00
20487;DHT22;10402;49.012;8.370;2023-05-20T10:22:26;19.80;65.80
20487;DHT22;10402;49.012;8.370;2023-05-20T10:25:03;19.70;65.90
20487;DHT22;10402;49.012;8.370;2023-05-20T10:27:41;19.70;65.90
20487;DHT22;10402;49.012;8.370;2023-05-20T10:30:15;19.80;66.00
20487;DHT22;10402;49.012;8.370;2023-05-20T10:32:48;19.80;65.80
20487;DHT22;10402;49.012;8.370;2023-05-20T10:35:23;19.80;65.80
20487;DHT22;10402;49.012;8.370;2023-05-20T10:37:51;19.70;65.60
20487;DHT22;10402;49.012;8.370;2023-05-20T10:40:19;19.70;65.70
20487;DHT22;10402;49.012;8.370;2023-05-20T10:42:45;19.70;65.70
20487;DHT22;10402;49.012;8.370;2023-05-20T10:45:24;19.80;65.70
20487;DHT22;10402;49.012;8.370;2023-05-20T10:47:54;19.90;66.30
20487;DHT22;10402;49.012;8.370;2023-05-20T10:50:32;20.00;65.10
20487;DHT22;10402;49.012;8.370;2023-05-20T10:53:03;20.00;65.00
20487;DHT22;10402;49.012;8.370;2023-05-20T10:55:35;20.10;64.80
20487;DHT22;10402;49.012;8.370;2023-05-20T10:58:01;20.00;64.60
20487;DHT22;10402;49.012;8.370;2023-05-20T11:00:27;20.10;64.70
20487;DHT22;10402;49.012;8.370;2023-05-20T11:02:54;20.10;64.70
20487;DHT22;10402;49.012;8.370;2023-05-20T11:05:20;20.20;64.60
20487;DHT22;10402;49.012;8.370;2023-05-20T11:07:46;20.30;64.50
20487;DHT22;10402;49.012;8.370;2023-05-20T11:10:12;20.30;64.20
20487;DHT22;10402;49.012;8.370;2023-05-20T11:12:38;20.40;64.20
20487;DHT22;10402;49.012;8.370;2023-05-20T11:15:04;20.40;64.20
20487;DHT22;10402;49.012;8.370;2023-05-20T11:17:29;20.50;64.10
20487;DHT22;10402;49.012;8.370;2023-05-20T11:19:56;20.60;63.60
20487;DHT22;10402;49.012;8.370;2023-05-20T11:22:25;20.60;63.20
20487;DHT22;10402;49.012;8.370;2023-05-20T11:24:50;20.70;63.10
20487;DHT22;10402;49.012;8.370;2023-05-20T11:27:16;20.80;63.10
20487;DHT22;10402;49.012;8.370;2023-05-20T11:29:41;20.80;63.10
20487;DHT22;10402;49.012;8.370;2023-05-20T11:32:07;20.80;62.90
20487;DHT22;10402;49.012;8.370;2023-05-20T11:34:34;20.90;63.00
20487;DHT22;10402;49.012;8.370;2023-05-20T11:37:00;21.00;62.70
20487;DHT22;10402;49.012;8.370;2023-05-20T11:39:29;21.00;62.60
20487;DHT22;10402;49.012;8.370;2023-05-20T11:41:54;21.00;62.40
20487;DHT22;10402;49.012;8.370;2023-05-20T11:44:20;20.90;62.40
20487;DHT22;10402;49.012;8.370;2023-05-20T11:46:47;20.90;62.50
20487;DHT22;10402;49.012;8.370;2023-05-20T11:49:15;20.90;62.60
20487;DHT22;10402;49.012;8.370;2023-05-20T11:51:44;20.90;62.40
20487;DHT22;10402;49.012;8.370;2023-05-20T11:54:10;20.90;62.30
20487;DHT22;10402;49.012;8.370;2023-05-20T11:56:36;20.90;62.20
20487;DHT22;10402;49.012;8.370;2023-05-20T11:59:03;20.90;62.20
20487;DHT22;10402;49.012;8.370;2023-05-20T12:01:39;20.80;62.30
20487;DHT22;10402;49.012;8.370;2023-05-20T12:04:06;20.90;62.50
20487;DHT22;10402;49.012;8.370;2023-05-20T12:06:32;20.90;62.50
20487;DHT22;10402;49.012;8.370;2023-05-20T12:09:01;20.90;62.30
20487;DHT22;10402;49.012;8.370;2023-05-20T12:11:34;21.00;62.30
20487;DHT22;10402;49.012;8.370;2023-05-20T12:14:01;21.10;62.10
20487;DHT22;10402;49.012;8.370;2023-05-20T12:16:27;21.10;62.00
20487;DHT22;10402;49.012;8.370;2023-05-20T12:18:53;21.20;62.20
20487;DHT22;10402;49.012;8.370;2023-05-20T12:21:18;21.20;61.90
20487;DHT22;10402;49.012;8.370;2023-05-20T12:23:44;21.30;61.90
20487;DHT22;10402;49.012;8.370;2023-05-20T12:26:09;21.30;61.90
20487;DHT22;10402;49.012;8.370;2023-05-20T12:28:35;21.30;61.90
20487;DHT22;10402;49.012;8.370;2023-05-20T12:31:00;21.30;61.90
20487;DHT22;10402;49.012;8.370;2023-05-20T12:33:26;21.40;62.00
20487;DHT22;10402;49.012;8.370;2023-05-20T12:35:52;21.50;61.70
20487;DHT22;10402;49.012;8.370;2023-05-20T12:38:17;21.50;61.50
20487;DHT22;10402;49.012;8.370;2023-05-20T12:40:43;21.60;61.60
20487;DHT22;10402;49.012;8.370;2023-05-20T12:43:08;21.60;61.30
20487;DHT22;10402;49.012;8.370;2023-05-20T12:45:34;21.60;61.10
20487;DHT22;10402;49.012;8.370;2023-05-20T12:48:00;21.60;61.30
20487;DHT22;10402;49.012;8.370;2023-05-20T12:50:26;21.60;61.30
20487;DHT22;10402;49.012;8.370;2023-05-20T12:52:52;21.60;61.10
20487;DHT22;10402;49.012;8.370;2023-05-20T12:55:17;21.50;61.10
20487;DHT22;10402;49.012;8.370;2023-05-20T12:57:44;21.50;61.20
20487;DHT22;10402;49.012;8.370;2023-05-20T13:00:10;21.60;61.30
20487;DHT22;10402;49.012;8.370;2023-05-20T13:02:37;21.60;61.30
20487;DHT22;10402;49.012;8.370;2023-05-20T13:05:03;21.70;61.10
20487;DHT22;10402;49.012;8.370;2023-05-20T13:07:29;21.80;61.10
20487;DHT22;10402;49.012;8.370;2023-05-20T13:09:56;21.80;60.80
20487;DHT22;10402;49.012;8.370;2023-05-20T13:12:21;21.80;60.70
20487;DHT22;10402;49.012;8.370;2023-05-20T13:14:47;21.80;60.50
20487;DHT22;10402;49.012;8.370;2023-05-20T13:17:12;21.80;60.40
20487;DHT22;10402;49.012;8.370;2023-05-20T13:19:38;21.90;60.50
20487;DHT22;10402;49.012;8.370;2023-05-20T13:22:04;21.90;60.30
20487;DHT22;10402;49.012;8.370;2023-05-20T13:24:33;21.90;60.20
20487;DHT22;10402;49.012;8.370;2023-05-20T13:26:58;21.90;60.20
20487;DHT22;10402;49.012;8.370;2023-05-20T13:29:26;22.00;60.30
20487;DHT22;10402;49.012;8.370;2023-05-20T13:31:51;22.00;60.20
20487;DHT22;10402;49.012;8.370;2023-05-20T13:34:17;22.10;60.20
20487;DHT22;10402;49.012;8.370;2023-05-20T13:36:42;22.20;60.00
20487;DHT22;10402;49.012;8.370;2023-05-20T13:39:08;22.20;59.90
20487;DHT22;10402;49.012;8.370;2023-05-20T13:41:34;22.20;59.90
20487;DHT22;10402;49.012;8.370;2023-05-20T13:43:59;22.20;59.90
20487;DHT22;10402;49.012;8.370;2023-05-20T13:46:25;22.20;59.80
20487;DHT22;10402;49.012;8.370;2023-05-20T13:48:50;22.20;59.80
20487;DHT22;10402;49.012;8.370;2023-05-20T13:51:16;22.20;59.70
20487;DHT22;10402;49.012;8.370;2023-05-20T13:53:41;22.30;59.60
20487;DHT22;10402;49.012;8.370;2023-05-20T13:56:07;22.30;59.70
20487;DHT22;10402;49.012;8.370;2023-05-20T13:58:36;22.40;59.70
20487;DHT22;10402;49.012;8.370;2023-05-20T14:01:02;22.50;59.70
20487;DHT22;10402;49.012;8.370;2023-05-20T14:03:29;22.40;59.40
20487;DHT22;10402;49.012;8.370;2023-05-20T14:05:55;22.50;59.50
20487;DHT22;10402;49.012;8.370;2023-05-20T14:08:21;22.50;59.30
20487;DHT22;10402;49.012;8.370;2023-05-20T14:10:46;22.60;59.40
20487;DHT22;10402;49.012;8.370;2023-05-20T14:13:12;22.50;59.30
20487;DHT22;10402;49.012;8.370;2023-05-20T14:15:37;22.40;59.20
20487;DHT22;10402;49.012;8.370;2023-05-20T14:18:03;22.40;59.20
20487;DHT22;10402;49.012;8.370;2023-05-20T14:20:29;22.30;59.10
20487;DHT22;10402;49.012;8.370;2023-05-20T14:22:54;22.30;59.20
20487;DHT22;10402;49.012;8.370;2023-05-20T14:25:20;22.30;59.30
20487;DHT22;10402;49.012;8.370;2023-05-20T14:27:45;22.30;59.30
20487;DHT22;10402;49.012;8.370;2023-05-20T14:30:11;22.30;59.10
20487;DHT22;10402;49.012;8.370;2023-05-20T14:32:37;22.20;59.10
20487;DHT22;10402;49.012;8.370;2023-05-20T14:35:03;22.20;59.20
20487;DHT22;10402;49.012;8.370;2023-05-20T14:37:29;22.20;59.20
20487;DHT22;10402;49.012;8.370;2023-05-20T14:39:55;22.20;59.20
20487;DHT22;10402;49.012;8.370;2023-05-20T14:42:21;22.20;59.20
20487;DHT22;10402;49.012;8.370;2023-05-20T14:44:46;22.20;59.20
20487;DHT22;10402;49.012;8.370;2023-05-20T14:47:12;22.20;59.20
20487;DHT22;10402;49.012;8.370;2023-05-20T14:49:41;22.30;59.10
20487;DHT22;10402;49.012;8.370;2023-05-20T14:52:08;22.30;59.10
20487;DHT22;10402;49.012;8.370;2023-05-20T14:54:34;22.30;59.20
20487;DHT22;10402;49.012;8.370;2023-05-20T14:56:59;22.40;59.20
20487;DHT22;10402;49.012;8.370;2023-05-20T14:59:25;22.40;59.10
20487;DHT22;10402;49.012;8.370;2023-05-20T15:01:50;22.50;59.10
20487;DHT22;10402;49.012;8.370;2023-05-20T15:04:16;22.60;59.00
20487;DHT22;10402;49.012;8.370;2023-05-20T15:06:41;22.60;58.90
20487;DHT22;10402;49.012;8.370;2023-05-20T15:09:07;22.60;58.90
20487;DHT22;10402;49.012;8.370;2023-05-20T15:11:33;22.60;58.90
20487;DHT22;10402;49.012;8.370;2023-05-20T15:13:58;22.50;58.80
20487;DHT22;10402;49.012;8.370;2023-05-20T15:16:24;22.70;58.90
20487;DHT22;10402;49.012;8.370;2023-05-20T15:18:50;22.70;58.70
20487;DHT22;10402;49.012;8.370;2023-05-20T15:21:16;22.70;58.60
20487;DHT22;10402;49.012;8.370;2023-05-20T15:23:41;22.70;58.60
20487;DHT22;10402;49.012;8.370;2023-05-20T15:26:07;22.70;58.60
20487;DHT22;10402;49.012;8.370;2023-05-20T15:28:36;22.80;58.70
20487;DHT22;10402;49.012;8.370;2023-05-20T15:31:01;22.90;58.70
20487;DHT22;10402;49.012;8.370;2023-05-20T15:33:27;22.90;58.60